sensor_id;sensor_type;location;lat;lon;timestamp;pressure;altitude;pressure_sealevel;temperature;humidity
25855;BME280;13680;49.936;11.344;2023-04-27T00:01:00;96894.72;;;7.32;56.24
25855;BME280;13680;49.936;11.344;2023-04-27T00:03:25;96890.94;;;7.33;55.89
25855;BME280;13680;49.936;11.344;2023-04-27T00:05:51;96889.88;;;7.34;55.75
25855;BME280;13680;49.936;11.344;2023-04-27T00:08:16;96886.72;;;7.27;56.00
25855;BME280;13680;49.936;11.344;2023-04-27T00:10:41;96885.88;;;7.32;56.73
25855;BME280;13680;49.936;11.344;2023-04-27T00:13:07;96889.88;;;7.34;56.59
25855;BME280;13680;49.936;11.344;2023-04-27T00:15:32;96890.44;;;7.31;56.55
25855;BME280;13680;49.936;11.344;2023-04-27T00:17:57;96880.31;;;7.23;56.38
25855;BME280;13680;49.936;11.344;2023-04-27T00:20:23;96876.53;;;7.29;56.16
25855;BME280;13680;49.936;11.344;2023-04-27T00:22:49;96881.91;;;7.24;57.36
25855;BME280;13680;49.936;11.344;2023-04-27T00:25:14;96870.69;;;7.27;58.33
25855;BME280;13680;49.936;11.344;2023-04-27T00:27:40;96873.84;;;7.29;58.38
25855;BME280;13680;49.936;11.344;2023-04-27T00:30:06;96879.47;;;7.33;58.52
25855;BME280;13680;49.936;11.344;2023-04-27T00:32:32;96874.38;;;7.36;58.33
25855;BME280;13680;49.936;11.344;2023-04-27T00:34:57;96866.91;;;7.28;58.51
25855;BME280;13680;49.936;11.344;2023-04-27T00:37:22;96865.31;;;7.27;58.37
25855;BME280;13680;49.936;11.344;2023-04-27T00:39:47;96868.78;;;7.28;58.76
25855;BME280;13680;49.936;11.344;2023-04-27T00:42:13;96871.47;;;7.28;58.91
25855;BME280;13680;49.936;11.344;2023-04-27T00:44:41;96870.94;;;7.26;58.94
25855;BME280;13680;49.936;11.344;2023-04-27T00:47:06;96868.81;;;7.23;59.08
25855;BME280;13680;49.936;11.344;2023-04-27T00:49:32;96871.78;;;7.21;59.54
25855;BME280;13680;49.936;11.344;2023-04-27T00:51:57;96871.22;;;7.19;59.93
25855;BME280;13680;49.936;11.344;2023-04-27T00:54:24;96877.66;;;7.18;60.04
25855;BME280;13680;49.936;11.344;2023-04-27T00:56:50;96873.38;;;7.17;60.68
25855;BME280;13680;49.936;11.344;2023-04-27T00:59:16;96868.88;;;7.07;61.52
25855;BME280;13680;49.936;11.344;2023-04-27T01:01:41;96868.06;;;7.07;61.71
25855;BME280;13680;49.936;11.344;2023-04-27T01:04:07;96869.16;;;7.06;61.73
25855;BME280;13680;49.936;11.344;2023-04-27T01:06:32;96867.81;;;7.08;61.60
25855;BME280;13680;49.936;11.344;2023-04-27T01:08:58;96863.78;;;7.11;61.46
25855;BME280;13680;49.936;11.344;2023-04-27T01:11:23;96864.88;;;7.04;61.99
25855;BME280;13680;49.936;11.344;2023-04-27T01:13:48;96869.97;;;7.01;62.11
25855;BME280;13680;49.936;11.344;2023-04-27T01:16:16;96867.03;;;6.97;61.98
25855;BME280;13680;49.936;11.344;2023-04-27T01:18:42;96869.19;;;6.95;61.80
25855;BME280;13680;49.936;11.344;2023-04-27T01:21:08;96866.00;;;6.93;61.79
25855;BME280;13680;49.936;11.344;2023-04-27T01:23:33;96865.44;;;6.91;61.31
25855;BME280;13680;49.936;11.344;2023-04-27T01:25:59;96860.94;;;6.92;61.21
25855;BME280;13680;49.936;11.344;2023-04-27T01:28:24;96858.56;;;6.75;62.37
25855;BME280;13680;49.936;11.344;2023-04-27T01:30:50;96866.31;;;6.81;62.37
25855;BME280;13680;49.936;11.344;2023-04-27T01:33:15;96862.81;;;6.86;62.48
25855;BME280;13680;49.936;11.344;2023-04-27T01:35:41;96861.78;;;6.77;63.17
25855;BME280;13680;49.936;11.344;2023-04-27T01:38:07;96865.78;;;6.79;63.23
25855;BME280;13680;49.936;11.344;2023-04-27T01:40:32;96866.31;;;6.76;63.60
25855;BME280;13680;49.936;11.344;2023-04-27T01:42:58;96861.22;;;6.80;63.65
25855;BME280;13680;49.936;11.344;2023-04-27T01:45:23;96860.97;;;6.81;63.33
25855;BME280;13680;49.936;11.344;2023-04-27T01:47:52;96867.38;;;6.80;63.80
25855;BME280;13680;49.936;11.344;2023-04-27T01:50:17;96868.72;;;6.78;63.98
25855;BME280;13680;49.936;11.344;2023-04-27T01:52:43;96862.03;;;6.80;63.43
25855;BME280;13680;49.936;11.344;2023-04-27T01:55:08;96863.66;;;6.76;63.85
25855;BME280;13680;49.936;11.344;2023-04-27T01:57:34;96863.13;;;6.69;63.81
25855;BME280;13680;49.936;11.344;2023-04-27T01:59:59;96873.00;;;6.68;63.89
25855;BME280;13680;49.936;11.344;2023-04-27T02:02:24;96879.16;;;6.64;64.18
25855;BME280;13680;49.936;11.344;2023-04-27T02:04:50;96875.94;;;6.67;63.75
25855;BME280;13680;49.936;11.344;2023-04-27T02:07:15;96872.47;;;6.66;63.79
25855;BME280;13680;49.936;11.344;2023-04-27T02:09:40;96879.44;;;6.67;63.68
25855;BME280;13680;49.936;11.344;2023-04-27T02:12:06;96876.50;;;6.69;63.60
25855;BME280;13680;49.936;11.344;2023-04-27T02:14:31;96868.75;;;6.67;63.21
25855;BME280;13680;49.936;11.344;2023-04-27T02:16:57;96878.09;;;6.70;63.25
25855;BME280;13680;49.936;11.344;2023-04-27T02:19:22;96876.78;;;6.62;63.36
25855;BME280;13680;49.936;11.344;2023-04-27T02:21:47;96881.56;;;6.65;63.48
25855;BME280;13680;49.936;11.344;2023-04-27T02:24:13;96877.84;;;6.66;63.35
25855;BME280;13680;49.936;11.344;2023-04-27T02:26:38;96880.50;;;6.66;63.38
25855;BME280;13680;49.936;11.344;2023-04-27T02:29:03;96887.19;;;6.64;63.18
25855;BME280;13680;49.936;11.344;2023-04-27T02:31:28;96888.53;;;6.61;63.39
25855;BME280;13680;49.936;11.344;2023-04-27T02:33:54;96886.91;;;6.60;63.95
25855;BME280;13680;49.936;11.344;2023-04-27T02:36:19;96890.13;;;6.62;63.74
25855;BME280;13680;49.936;11.344;2023-04-27T02:38:45;96888.00;;;6.59;64.50
25855;BME280;13680;49.936;11.344;2023-04-27T02:41:10;96881.84;;;6.59;64.39
25855;BME280;13680;49.936;11.344;2023-04-27T02:43:35;96890.94;;;6.58;64.39
25855;BME280;13680;49.936;11.344;2023-04-27T02:46:02;96881.03;;;6.58;64.85
25855;BME280;13680;49.936;11.344;2023-04-27T02:48:28;96891.72;;;6.58;64.55
25855;BME280;13680;49.936;11.344;2023-04-27T02:50:54;96888.00;;;6.59;64.65
25855;BME280;13680;49.936;11.344;2023-04-27T02:53:19;96884.00;;;6.57;64.52
25855;BME280;13680;49.936;11.344;2023-04-27T02:55:45;96884.81;;;6.57;64.67
25855;BME280;13680;49.936;11.344;2023-04-27T02:58:14;96880.25;;;6.52;65.10
25855;BME280;13680;49.936;11.344;2023-04-27T03:00:41;96891.22;;;6.51;64.89
25855;BME280;13680;49.936;11.344;2023-04-27T03:03:07;96891.75;;;6.48;64.97
25855;BME280;13680;49.936;11.344;2023-04-27T03:05:32;96890.16;;;6.52;65.01
25855;BME280;13680;49.936;11.344;2023-04-27T03:07:58;96889.06;;;6.48;64.86
25855;BME280;13680;49.936;11.344;2023-04-27T03:10:23;96894.97;;;6.50;64.74
25855;BME280;13680;49.936;11.344;2023-04-27T03:12:49;96900.81;;;6.47;64.88
25855;BME280;13680;49.936;11.344;2023-04-27T03:15:14;96900.28;;;6.50;64.77
25855;BME280;13680;49.936;11.344;2023-04-27T03:17:39;96900.81;;;6.47;64.92
25855;BME280;13680;49.936;11.344;2023-04-27T03:20:05;96898.44;;;6.45;64.75
25855;BME280;13680;49.936;11.344;2023-04-27T03:22:34;96900.03;;;6.41;65.06
25855;BME280;13680;49.936;11.344;2023-04-27T03:24:59;96899.75;;;6.43;65.29
25855;BME280;13680;49.936;11.344;2023-04-27T03:27:24;96898.16;;;6.42;65.34
25855;BME280;13680;49.936;11.344;2023-04-27T03:29:50;96898.16;;;6.42;65.80
25855;BME280;13680;49.936;11.344;2023-04-27T03:32:17;96903.50;;;6.42;65.66
25855;BME280;13680;49.936;11.344;2023-04-27T03:34:43;96910.72;;;6.41;65.44
25855;BME280;13680;49.936;11.344;2023-04-27T03:37:08;96909.94;;;6.35;65.38
25855;BME280;13680;49.936;11.344;2023-04-27T03:39:33;96912.84;;;6.34;65.53
25855;BME280;13680;49.936;11.344;2023-04-27T03:41:59;96919.00;;;6.34;65.88
25855;BME280;13680;49.936;11.344;2023-04-27T03:44:24;96908.59;;;6.33;65.54
25855;BME280;13680;49.936;11.344;2023-04-27T03:46:49;96906.72;;;6.33;65.89
25855;BME280;13680;49.936;11.344;2023-04-27T03:49:15;96909.41;;;6.28;66.08
25855;BME280;13680;49.936;11.344;2023-04-27T03:51:40;96911.00;;;6.29;65.62
25855;BME280;13680;49.936;11.344;2023-04-27T03:54:06;96911.00;;;6.29;66.30
25855;BME280;13680;49.936;11.344;2023-04-27T03:56:31;96912.84;;;6.29;66.30
25855;BME280;13680;49.936;11.344;2023-04-27T03:58:57;96917.41;;;6.23;66.64
25855;BME280;13680;49.936;11.344;2023-04-27T04:01:22;96920.06;;;6.28;66.64
25855;BME280;13680;49.936;11.344;2023-04-27T04:03:49;96924.88;;;6.31;66.97
25855;BME280;13680;49.936;11.344;2023-04-27T04:06:15;96926.22;;;6.18;67.41
25855;BME280;13680;49.936;11.344;2023-04-27T04:08:41;96922.19;;;6.31;66.90
25855;BME280;13680;49.936;11.344;2023-04-27T04:11:06;96913.13;;;6.32;66.54
25855;BME280;13680;49.936;11.344;2023-04-27T04:13:31;96917.94;;;6.35;66.45
25855;BME280;13680;49.936;11.344;2023-04-27T04:18:26;96925.69;;;6.21;67.90
25855;BME280;13680;49.936;11.344;2023-04-27T04:20:51;96915.53;;;6.23;68.13
25855;BME280;13680;49.936;11.344;2023-04-27T04:23:16;96922.19;;;6.31;67.59
25855;BME280;13680;49.936;11.344;2023-04-27T04:25:44;96926.22;;;6.29;67.30
25855;BME280;13680;49.936;11.344;2023-04-27T04:28:09;96932.09;;;6.36;67.21
25855;BME280;13680;49.936;11.344;2023-04-27T04:30:35;96928.63;;;6.30;67.17
25855;BME280;13680;49.936;11.344;2023-04-27T04:33:00;96925.97;;;6.35;67.21
25855;BME280;13680;49.936;11.344;2023-04-27T04:35:25;96923.53;;;6.39;66.76
25855;BME280;13680;49.936;11.344;2023-04-27T04:37:51;96927.03;;;6.45;66.65
25855;BME280;13680;49.936;11.344;2023-04-27T04:40:16;96912.31;;;6.47;66.70
25855;BME280;13680;49.936;11.344;2023-04-27T04:42:41;96916.84;;;6.36;67.71
25855;BME280;13680;49.936;11.344;2023-04-27T04:45:07;96923.81;;;6.37;67.62
25855;BME280;13680;49.936;11.344;2023-04-27T04:47:32;96924.34;;;6.50;67.56
25855;BME280;13680;49.936;11.344;2023-04-27T04:49:58;96921.13;;;6.53;67.31
25855;BME280;13680;49.936;11.344;2023-04-27T04:52:23;96921.66;;;6.60;67.27
25855;BME280;13680;49.936;11.344;2023-04-27T04:54:52;96920.88;;;6.60;67.58
25855;BME280;13680;49.936;11.344;2023-04-27T04:57:17;96922.97;;;6.68;67.56
25855;BME280;13680;49.936;11.344;2023-04-27T04:59:43;96926.19;;;6.75;67.33
25855;BME280;13680;49.936;11.344;2023-04-27T05:02:08;96926.69;;;6.77;67.00
25855;BME280;13680;49.936;11.344;2023-04-27T05:04:33;96915.22;;;6.77;67.25
25855;BME280;13680;49.936;11.344;2023-04-27T05:06:59;96932.03;;;6.87;67.11
25855;BME280;13680;49.936;11.344;2023-04-27T05:09:24;96922.16;;;6.88;67.37
25855;BME280;13680;49.936;11.344;2023-04-27T05:11:50;96927.22;;;6.95;67.19
25855;BME280;13680;49.936;11.344;2023-04-27T05:14:15;96932.03;;;6.98;67.22
25855;BME280;13680;49.936;11.344;2023-04-27T05:16:40;96936.78;;;7.11;66.66
25855;BME280;13680;49.936;11.344;2023-04-27T05:19:06;96935.41;;;7.19;66.17
25855;BME280;13680;49.936;11.344;2023-04-27T05:21:32;96939.16;;;7.23;65.97
25855;BME280;13680;49.936;11.344;2023-04-27T05:23:58;96939.09;;;7.33;65.39
25855;BME280;13680;49.936;11.344;2023-04-27T05:26:23;96937.00;;;7.30;65.58
25855;BME280;13680;49.936;11.344;2023-04-27T05:28:48;96946.63;;;7.31;66.36
25855;BME280;13680;49.936;11.344;2023-04-27T05:31:14;96946.03;;;7.45;65.83
25855;BME280;13680;49.936;11.344;2023-04-27T05:33:39;96942.22;;;7.56;65.32
25855;BME280;13680;49.936;11.344;2023-04-27T05:36:05;96948.84;;;7.69;64.77
25855;BME280;13680;49.936;11.344;2023-04-27T05:38:30;96951.50;;;7.74;64.80
25855;BME280;13680;49.936;11.344;2023-04-27T05:40:57;96961.34;;;7.89;64.53
25855;BME280;13680;49.936;11.344;2023-04-27T05:43:24;96964.53;;;7.91;64.50
25855;BME280;13680;49.936;11.344;2023-04-27T05:45:50;96967.16;;;8.01;64.01
25855;BME280;13680;49.936;11.344;2023-04-27T05:48:16;96962.75;;;8.21;63.57
25855;BME280;13680;49.936;11.344;2023-04-27T05:50:41;96973.41;;;8.26;63.37
25855;BME280;13680;49.936;11.344;2023-04-27T05:53:06;96972.56;;;8.36;62.88
25855;BME280;13680;49.936;11.344;2023-04-27T05:55:32;96967.94;;;8.42;60.47
25855;BME280;13680;49.936;11.344;2023-04-27T05:57:58;96964.72;;;8.50;57.43
25855;BME280;13680;49.936;11.344;2023-04-27T06:00:23;96971.59;;;8.61;56.64
25855;BME280;13680;49.936;11.344;2023-04-27T06:02:49;96954.88;;;8.70;58.22
25855;BME280;13680;49.936;11.344;2023-04-27T06:05:14;96953.06;;;8.65;58.20
25855;BME280;13680;49.936;11.344;2023-04-27T06:07:40;96953.66;;;8.86;58.69
25855;BME280;13680;49.936;11.344;2023-04-27T06:10:11;96959.69;;;9.02;58.86
25855;BME280;13680;49.936;11.344;2023-04-27T06:12:36;96963.09;;;9.08;56.81
25855;BME280;13680;49.936;11.344;2023-04-27T06:15:02;96972.28;;;9.26;54.11
25855;BME280;13680;49.936;11.344;2023-04-27T06:17:34;96965.19;;;9.16;54.58
25855;BME280;13680;49.936;11.344;2023-04-27T06:19:59;96963.81;;;9.43;52.87
25855;BME280;13680;49.936;11.344;2023-04-27T06:22:25;96968.00;;;9.49;52.72
25855;BME280;13680;49.936;11.344;2023-04-27T06:24:50;96970.44;;;9.50;52.40
25855;BME280;13680;49.936;11.344;2023-04-27T06:27:15;96962.63;;;9.49;52.15
25855;BME280;13680;49.936;11.344;2023-04-27T06:29:41;96961.16;;;9.62;51.63
25855;BME280;13680;49.936;11.344;2023-04-27T06:32:06;96953.31;;;9.85;50.33
25855;BME280;13680;49.936;11.344;2023-04-27T06:34:32;96968.66;;;9.84;50.67
25855;BME280;13680;49.936;11.344;2023-04-27T06:36:58;96958.56;;;9.95;50.33
25855;BME280;13680;49.936;11.344;2023-04-27T06:39:23;96964.59;;;10.06;49.74
25855;BME280;13680;49.936;11.344;2023-04-27T06:41:48;96965.81;;;10.32;48.90
25855;BME280;13680;49.936;11.344;2023-04-27T06:44:14;96964.16;;;10.37;49.08
25855;BME280;13680;49.936;11.344;2023-04-27T06:46:39;96964.47;;;10.68;47.77
25855;BME280;13680;49.936;11.344;2023-04-27T06:49:04;96963.22;;;10.79;48.06
25855;BME280;13680;49.936;11.344;2023-04-27T06:51:30;96961.53;;;10.84;47.88
25855;BME280;13680;49.936;11.344;2023-04-27T06:53:56;96961.59;;;10.64;45.94
25855;BME280;13680;49.936;11.344;2023-04-27T06:56:21;96967.97;;;10.69;46.01
25855;BME280;13680;49.936;11.344;2023-04-27T06:58:46;96969.72;;;10.59;45.97
25855;BME280;13680;49.936;11.344;2023-04-27T07:01:12;96973.13;;;10.65;47.62
25855;BME280;13680;49.936;11.344;2023-04-27T07:03:37;96974.84;;;10.75;48.20
25855;BME280;13680;49.936;11.344;2023-04-27T07:06:03;96977.63;;;10.70;47.47
25855;BME280;13680;49.936;11.344;2023-04-27T07:08:28;96976.88;;;10.83;46.95
25855;BME280;13680;49.936;11.344;2023-04-27T07:10:53;96972.34;;;11.11;47.24
25855;BME280;13680;49.936;11.344;2023-04-27T07:13:20;96978.53;;;11.40;46.08
25855;BME280;13680;49.936;11.344;2023-04-27T07:15:45;96981.34;;;11.49;45.88
25855;BME280;13680;49.936;11.344;2023-04-27T07:18:11;96969.72;;;11.90;44.60
25855;BME280;13680;49.936;11.344;2023-04-27T07:20:36;96970.09;;;12.11;44.27
25855;BME280;13680;49.936;11.344;2023-04-27T07:23:02;96964.47;;;12.21;44.54
25855;BME280;13680;49.936;11.344;2023-04-27T07:25:28;96967.31;;;12.39;42.96
25855;BME280;13680;49.936;11.344;2023-04-27T07:27:53;96970.97;;;12.20;46.06
25855;BME280;13680;49.936;11.344;2023-04-27T07:30:19;96969.91;;;11.93;45.22
25855;BME280;13680;49.936;11.344;2023-04-27T07:32:44;96967.81;;;12.41;44.26
25855;BME280;13680;49.936;11.344;2023-04-27T07:35:10;96980.75;;;12.30;46.51
25855;BME280;13680;49.936;11.344;2023-04-27T07:37:37;96977.00;;;12.63;43.05
25855;BME280;13680;49.936;11.344;2023-04-27T07:40:03;96974.81;;;12.96;42.98
25855;BME280;13680;49.936;11.344;2023-04-27T07:42:38;96971.25;;;13.09;43.23
25855;BME280;13680;49.936;11.344;2023-04-27T07:45:06;96979.22;;;13.15;42.15
25855;BME280;13680;49.936;11.344;2023-04-27T07:47:32;96973.06;;;12.91;42.49
25855;BME280;13680;49.936;11.344;2023-04-27T07:49:57;96981.59;;;13.16;42.89
25855;BME280;13680;49.936;11.344;2023-04-27T07:52:23;96971.09;;;13.15;43.65
25855;BME280;13680;49.936;11.344;2023-04-27T07:54:48;96974.41;;;12.80;45.09
25855;BME280;13680;49.936;11.344;2023-04-27T07:57:13;96973.13;;;13.00;43.25
25855;BME280;13680;49.936;11.344;2023-04-27T07:59:39;96971.78;;;13.29;42.76
25855;BME280;13680;49.936;11.344;2023-04-27T08:02:04;96968.78;;;13.71;42.02
25855;BME280;13680;49.936;11.344;2023-04-27T08:04:30;96977.41;;;13.73;40.64
25855;BME280;13680;49.936;11.344;2023-04-27T08:06:55;96974.91;;;14.20;38.55
25855;BME280;13680;49.936;11.344;2023-04-27T08:09:21;96970.63;;;14.37;39.41
25855;BME280;13680;49.936;11.344;2023-04-27T08:11:46;96981.91;;;14.39;40.26
25855;BME280;13680;49.936;11.344;2023-04-27T08:14:11;96979.19;;;14.92;36.85
25855;BME280;13680;49.936;11.344;2023-04-27T08:16:41;96978.72;;;14.89;38.72
25855;BME280;13680;49.936;11.344;2023-04-27T08:19:07;96978.88;;;15.41;38.49
25855;BME280;13680;49.936;11.344;2023-04-27T08:21:34;96983.13;;;15.50;37.53
25855;BME280;13680;49.936;11.344;2023-04-27T08:24:00;96976.22;;;15.62;36.39
25855;BME280;13680;49.936;11.344;2023-04-27T08:26:25;96984.03;;;15.25;38.30
25855;BME280;13680;49.936;11.344;2023-04-27T08:28:51;96983.81;;;15.77;36.78
25855;BME280;13680;49.936;11.344;2023-04-27T08:31:16;96977.25;;;15.48;37.05
25855;BME280;13680;49.936;11.344;2023-04-27T08:33:41;96978.31;;;16.16;35.22
25855;BME280;13680;49.936;11.344;2023-04-27T08:36:07;96988.66;;;15.24;34.45
25855;BME280;13680;49.936;11.344;2023-04-27T08:38:33;96978.69;;;15.46;35.04
25855;BME280;13680;49.936;11.344;2023-04-27T08:40:59;96980.00;;;15.69;35.60
25855;BME280;13680;49.936;11.344;2023-04-27T08:43:25;96978.50;;;15.51;32.15
25855;BME280;13680;49.936;11.344;2023-04-27T08:45:50;96976.16;;;14.84;33.49
25855;BME280;13680;49.936;11.344;2023-04-27T08:48:17;96977.59;;;14.12;34.66
25855;BME280;13680;49.936;11.344;2023-04-27T08:50:43;96983.81;;;14.82;33.51
25855;BME280;13680;49.936;11.344;2023-04-27T08:53:21;96989.06;;;14.61;32.37
25855;BME280;13680;49.936;11.344;2023-04-27T08:55:48;96981.72;;;14.97;30.81
25855;BME280;13680;49.936;11.344;2023-04-27T08:58:13;96982.97;;;15.08;31.82
25855;BME280;13680;49.936;11.344;2023-04-27T09:00:41;96990.03;;;14.92;32.77
25855;BME280;13680;49.936;11.344;2023-04-27T09:03:22;96982.72;;;15.31;33.31
25855;BME280;13680;49.936;11.344;2023-04-27T09:05:47;96975.84;;;15.72;31.11
25855;BME280;13680;49.936;11.344;2023-04-27T09:08:13;96973.94;;;16.24;30.74
25855;BME280;13680;49.936;11.344;2023-04-27T09:10:43;96979.38;;;16.24;31.14
25855;BME280;13680;49.936;11.344;2023-04-27T09:13:08;96980.06;;;15.61;30.02
25855;BME280;13680;49.936;11.344;2023-04-27T09:15:43;96971.97;;;16.12;29.94
25855;BME280;13680;49.936;11.344;2023-04-27T09:20:46;96968.50;;;15.43;33.35
25855;BME280;13680;49.936;11.344;2023-04-27T09:23:24;96968.13;;;16.13;31.73
25855;BME280;13680;49.936;11.344;2023-04-27T09:25:57;96960.56;;;16.18;30.98
25855;BME280;13680;49.936;11.344;2023-04-27T09:28:24;96951.69;;;16.51;31.39
25855;BME280;13680;49.936;11.344;2023-04-27T09:31:00;96958.22;;;16.38;31.51
25855;BME280;13680;49.936;11.344;2023-04-27T09:33:30;96946.56;;;17.05;33.48
25855;BME280;13680;49.936;11.344;2023-04-27T09:35:57;96948.06;;;17.51;32.56
25855;BME280;13680;49.936;11.344;2023-04-27T09:38:23;96941.59;;;17.56;31.02
25855;BME280;13680;49.936;11.344;2023-04-27T09:40:50;96938.53;;;17.95;30.75
25855;BME280;13680;49.936;11.344;2023-04-27T09:43:16;96942.91;;;16.33;32.52
25855;BME280;13680;49.936;11.344;2023-04-27T09:45:41;96941.13;;;16.71;32.23
25855;BME280;13680;49.936;11.344;2023-04-27T09:48:07;96938.25;;;16.55;32.25
25855;BME280;13680;49.936;11.344;2023-04-27T09:50:37;96929.81;;;17.15;32.61
25855;BME280;13680;49.936;11.344;2023-04-27T09:53:08;96931.28;;;17.12;34.16
25855;BME280;13680;49.936;11.344;2023-04-27T09:59:04;96930.19;;;16.25;32.96
25855;BME280;13680;49.936;11.344;2023-04-27T10:01:46;96920.66;;;17.32;32.83
25855;BME280;13680;49.936;11.344;2023-04-27T10:04:42;96927.78;;;16.78;31.87
25855;BME280;13680;49.936;11.344;2023-04-27T10:07:11;96914.06;;;17.58;32.83
25855;BME280;13680;49.936;11.344;2023-04-27T10:09:45;96915.19;;;17.81;32.71
25855;BME280;13680;49.936;11.344;2023-04-27T10:12:32;96917.59;;;18.24;31.19
25855;BME280;13680;49.936;11.344;2023-04-27T10:14:58;96915.16;;;18.63;30.54
25855;BME280;13680;49.936;11.344;2023-04-27T10:17:29;96914.63;;;18.29;31.13
25855;BME280;13680;49.936;11.344;2023-04-27T10:19:57;96917.13;;;18.78;30.20
25855;BME280;13680;49.936;11.344;2023-04-27T10:22:23;96909.84;;;18.83;29.16
25855;BME280;13680;49.936;11.344;2023-04-27T10:24:50;96913.50;;;19.35;28.79
25855;BME280;13680;49.936;11.344;2023-04-27T10:27:17;96921.31;;;17.78;29.27
25855;BME280;13680;49.936;11.344;2023-04-27T10:29:49;96913.66;;;18.94;30.32
25855;BME280;13680;49.936;11.344;2023-04-27T10:32:22;96905.56;;;19.45;30.94
25855;BME280;13680;49.936;11.344;2023-04-27T10:35:01;96910.75;;;19.19;28.24
25855;BME280;13680;49.936;11.344;2023-04-27T10:37:37;96904.91;;;18.72;29.82
25855;BME280;13680;49.936;11.344;2023-04-27T10:40:07;96899.97;;;18.05;28.95
25855;BME280;13680;49.936;11.344;2023-04-27T10:42:32;96899.56;;;18.19;28.52
25855;BME280;13680;49.936;11.344;2023-04-27T10:44:58;96904.78;;;17.46;30.01
25855;BME280;13680;49.936;11.344;2023-04-27T10:47:23;96906.78;;;17.99;28.29
25855;BME280;13680;49.936;11.344;2023-04-27T10:49:52;96903.53;;;18.50;30.47
25855;BME280;13680;49.936;11.344;2023-04-27T10:52:20;96911.88;;;17.76;28.51
25855;BME280;13680;49.936;11.344;2023-04-27T10:54:45;96902.75;;;18.21;29.25
25855;BME280;13680;49.936;11.344;2023-04-27T10:57:11;96903.97;;;18.52;29.50
25855;BME280;13680;49.936;11.344;2023-04-27T10:59:49;96906.13;;;18.75;27.92
25855;BME280;13680;49.936;11.344;2023-04-27T11:02:15;96905.16;;;18.67;28.93
25855;BME280;13680;49.936;11.344;2023-04-27T11:04:41;96891.59;;;18.55;29.19
25855;BME280;13680;49.936;11.344;2023-04-27T11:07:07;96888.94;;;19.19;29.46
25855;BME280;13680;49.936;11.344;2023-04-27T11:09:37;96886.16;;;20.22;27.15
25855;BME280;13680;49.936;11.344;2023-04-27T11:12:07;96884.75;;;20.08;27.05
25855;BME280;13680;49.936;11.344;2023-04-27T11:14:35;96887.78;;;19.52;29.71
25855;BME280;13680;49.936;11.344;2023-04-27T11:17:04;96889.13;;;19.77;28.59
25855;BME280;13680;49.936;11.344;2023-04-27T11:19:30;96887.63;;;19.80;27.41
25855;BME280;13680;49.936;11.344;2023-04-27T11:22:04;96881.84;;;20.01;27.72
25855;BME280;13680;49.936;11.344;2023-04-27T11:24:31;96877.28;;;20.25;28.38
25855;BME280;13680;49.936;11.344;2023-04-27T11:26:57;96882.94;;;20.36;29.06
25855;BME280;13680;49.936;11.344;2023-04-27T11:29:22;96888.44;;;19.29;28.11
25855;BME280;13680;49.936;11.344;2023-04-27T11:31:49;96887.75;;;20.23;26.78
25855;BME280;13680;49.936;11.344;2023-04-27T11:34:17;96897.38;;;19.13;27.05
25855;BME280;13680;49.936;11.344;2023-04-27T11:36:43;96900.22;;;19.85;26.01
25855;BME280;13680;49.936;11.344;2023-04-27T11:39:15;96880.50;;;20.50;25.16
25855;BME280;13680;49.936;11.344;2023-04-27T11:41:42;96881.81;;;20.60;25.69
25855;BME280;13680;49.936;11.344;2023-04-27T11:44:11;96881.38;;;20.77;25.63
25855;BME280;13680;49.936;11.344;2023-04-27T11:46:37;96885.63;;;20.98;25.25
25855;BME280;13680;49.936;11.344;2023-04-27T11:49:04;96877.38;;;21.98;24.83
25855;BME280;13680;49.936;11.344;2023-04-27T11:51:30;96875.91;;;22.72;23.42
25855;BME280;13680;49.936;11.344;2023-04-27T11:54:01;96881.59;;;21.62;26.28
25855;BME280;13680;49.936;11.344;2023-04-27T11:56:33;96881.91;;;21.56;25.21
25855;BME280;13680;49.936;11.344;2023-04-27T11:58:58;96868.97;;;22.14;26.64
25855;BME280;13680;49.936;11.344;2023-04-27T12:01:24;96871.09;;;19.73;28.37
25855;BME280;13680;49.936;11.344;2023-04-27T12:03:49;96891.16;;;19.81;28.10
25855;BME280;13680;49.936;11.344;2023-04-27T12:06:15;96881.31;;;20.74;28.81
25855;BME280;13680;49.936;11.344;2023-04-27T12:08:40;96875.38;;;21.95;24.31
25855;BME280;13680;49.936;11.344;2023-04-27T12:11:05;96871.72;;;22.89;23.48
25855;BME280;13680;49.936;11.344;2023-04-27T12:13:31;96856.75;;;22.80;24.23
25855;BME280;13680;49.936;11.344;2023-04-27T12:15:56;96867.78;;;22.87;24.11
25855;BME280;13680;49.936;11.344;2023-04-27T12:18:21;96876.63;;;21.21;23.98
25855;BME280;13680;49.936;11.344;2023-04-27T12:20:47;96879.50;;;20.82;23.96
25855;BME280;13680;49.936;11.344;2023-04-27T12:25:37;96870.44;;;21.78;25.67
25855;BME280;13680;49.936;11.344;2023-04-27T12:28:06;96866.31;;;21.61;25.37
25855;BME280;13680;49.936;11.344;2023-04-27T12:30:31;96866.66;;;22.16;22.99
25855;BME280;13680;49.936;11.344;2023-04-27T12:32:57;96872.34;;;21.47;24.07
25855;BME280;13680;49.936;11.344;2023-04-27T12:35:24;96866.97;;;21.54;23.55
25855;BME280;13680;49.936;11.344;2023-04-27T12:37:50;96870.72;;;21.96;25.23
25855;BME280;13680;49.936;11.344;2023-04-27T12:40:16;96854.13;;;22.91;23.59
25855;BME280;13680;49.936;11.344;2023-04-27T12:42:42;96864.50;;;23.12;22.36
25855;BME280;13680;49.936;11.344;2023-04-27T12:45:07;96862.44;;;21.62;22.44
25855;BME280;13680;49.936;11.344;2023-04-27T12:47:33;96871.75;;;20.84;24.13
25855;BME280;13680;49.936;11.344;2023-04-27T12:49:59;96862.94;;;20.94;24.15
25855;BME280;13680;49.936;11.344;2023-04-27T12:52:24;96856.44;;;21.29;24.74
25855;BME280;13680;49.936;11.344;2023-04-27T12:54:51;96856.38;;;21.76;26.23
25855;BME280;13680;49.936;11.344;2023-04-27T12:57:21;96859.00;;;21.68;23.16
25855;BME280;13680;49.936;11.344;2023-04-27T12:59:47;96850.94;;;21.79;24.67
25855;BME280;13680;49.936;11.344;2023-04-27T13:02:12;96865.59;;;20.90;24.50